sensor_id;sensor_type;location;lat;lon;timestamp;P1;durP1;ratioP1;P2;durP2;ratioP2
6452;SDS011;3259;51.080;13.712;2023-04-03T00:01:31;5.55;;;2.28;;
6452;SDS011;3259;51.080;13.712;2023-04-03T00:04:19;3.95;;;2.17;;
6452;SDS011;3259;51.080;13.712;2023-04-03T00:07:09;5.10;;;2.00;;
6452;SDS011;3259;51.080;13.712;2023-04-03T00:09:59;4.03;;;1.80;;
6452;SDS011;3259;51.080;13.712;2023-04-03T00:12:47;4.18;;;2.47;;
6452;SDS011;3259;51.080;13.712;2023-04-03T00:15:36;5.45;;;2.40;;
6452;SDS011;3259;51.080;13.712;2023-04-03T00:18:25;3.22;;;1.85;;
6452;SDS011;3259;51.080;13.712;2023-04-03T00:21:14;3.83;;;1.65;;
6452;SDS011;3259;51.080;13.712;2023-04-03T00:24:04;3.55;;;1.65;;
6452;SDS011;3259;51.080;13.712;2023-04-03T00:26:53;2.85;;;1.60;;
6452;SDS011;3259;51.080;13.712;2023-04-03T00:29:42;1.90;;;1.80;;
6452;SDS011;3259;51.080;13.712;2023-04-03T00:32:31;3.53;;;1.73;;
6452;SDS011;3259;51.080;13.712;2023-04-03T00:35:20;4.80;;;1.98;;
6452;SDS011;3259;51.080;13.712;2023-04-03T00:38:09;2.08;;;1.13;;
6452;SDS011;3259;51.080;13.712;2023-04-03T00:40:59;3.17;;;1.67;;
6452;SDS011;3259;51.080;13.712;2023-04-03T00:43:48;3.17;;;1.88;;
6452;SDS011;3259;51.080;13.712;2023-04-03T00:46:37;3.65;;;1.52;;
6452;SDS011;3259;51.080;13.712;2023-04-03T00:49:26;1.52;;;1.38;;
6452;SDS011;3259;51.080;13.712;2023-04-03T00:52:15;2.15;;;1.10;;
6452;SDS011;3259;51.080;13.712;2023-04-03T00:55:07;3.17;;;1.67;;
6452;SDS011;3259;51.080;13.712;2023-04-03T00:57:58;2.15;;;1.30;;
6452;SDS011;3259;51.080;13.712;2023-04-03T01:00:50;2.78;;;1.48;;
6452;SDS011;3259;51.080;13.712;2023-04-03T01:03:43;2.13;;;1.13;;
6452;SDS011;3259;51.080;13.712;2023-04-03T01:06:33;3.63;;;1.33;;
6452;SDS011;3259;51.080;13.712;2023-04-03T01:09:24;2.33;;;1.30;;
6452;SDS011;3259;51.080;13.712;2023-04-03T01:12:15;3.17;;;1.70;;
6452;SDS011;3259;51.080;13.712;2023-04-03T01:15:06;3.25;;;1.42;;
6452;SDS011;3259;51.080;13.712;2023-04-03T01:17:57;1.90;;;0.90;;
6452;SDS011;3259;51.080;13.712;2023-04-03T01:20:56;1.52;;;1.08;;
6452;SDS011;3259;51.080;13.712;2023-04-03T01:24:22;1.45;;;0.82;;
6452;SDS011;3259;51.080;13.712;2023-04-03T01:27:21;2.58;;;1.00;;
6452;SDS011;3259;51.080;13.712;2023-04-03T01:30:12;3.05;;;1.13;;
6452;SDS011;3259;51.080;13.712;2023-04-03T01:33:03;2.45;;;1.20;;
6452;SDS011;3259;51.080;13.712;2023-04-03T01:35:54;2.42;;;0.93;;
6452;SDS011;3259;51.080;13.712;2023-04-03T01:38:43;1.17;;;0.93;;
6452;SDS011;3259;51.080;13.712;2023-04-03T01:41:31;1.75;;;1.02;;
6452;SDS011;3259;51.080;13.712;2023-04-03T01:44:20;2.65;;;1.40;;
6452;SDS011;3259;51.080;13.712;2023-04-03T01:47:09;1.73;;;1.15;;
6452;SDS011;3259;51.080;13.712;2023-04-03T01:49:59;4.20;;;1.30;;
6452;SDS011;3259;51.080;13.712;2023-04-03T01:52:47;1.77;;;1.10;;
6452;SDS011;3259;51.080;13.712;2023-04-03T01:55:36;1.00;;;0.93;;
6452;SDS011;3259;51.080;13.712;2023-04-03T01:58:25;1.70;;;0.93;;
6452;SDS011;3259;51.080;13.712;2023-04-03T02:01:14;1.25;;;0.93;;
6452;SDS011;3259;51.080;13.712;2023-04-03T02:04:03;0.90;;;0.85;;
6452;SDS011;3259;51.080;13.712;2023-04-03T02:06:53;2.63;;;0.82;;
6452;SDS011;3259;51.080;13.712;2023-04-03T02:09:42;1.85;;;1.15;;
6452;SDS011;3259;51.080;13.712;2023-04-03T02:12:31;0.63;;;0.52;;
6452;SDS011;3259;51.080;13.712;2023-04-03T02:15:19;2.25;;;1.00;;
6452;SDS011;3259;51.080;13.712;2023-04-03T02:18:08;2.67;;;0.75;;
6452;SDS011;3259;51.080;13.712;2023-04-03T02:20:57;1.48;;;0.75;;
6452;SDS011;3259;51.080;13.712;2023-04-03T02:23:47;1.02;;;0.73;;
6452;SDS011;3259;51.080;13.712;2023-04-03T02:26:36;0.70;;;0.70;;
6452;SDS011;3259;51.080;13.712;2023-04-03T02:29:25;2.65;;;0.63;;
6452;SDS011;3259;51.080;13.712;2023-04-03T02:32:13;0.70;;;0.50;;
6452;SDS011;3259;51.080;13.712;2023-04-03T02:35:02;0.68;;;0.40;;
6452;SDS011;3259;51.080;13.712;2023-04-03T02:37:51;1.05;;;0.50;;
6452;SDS011;3259;51.080;13.712;2023-04-03T02:40:42;1.30;;;0.77;;
6452;SDS011;3259;51.080;13.712;2023-04-03T02:43:30;1.60;;;0.73;;
6452;SDS011;3259;51.080;13.712;2023-04-03T02:46:19;3.05;;;0.60;;
6452;SDS011;3259;51.080;13.712;2023-04-03T02:49:08;1.17;;;0.52;;
6452;SDS011;3259;51.080;13.712;2023-04-03T02:51:56;1.10;;;0.68;;
6452;SDS011;3259;51.080;13.712;2023-04-03T02:54:45;2.08;;;0.73;;
6452;SDS011;3259;51.080;13.712;2023-04-03T02:57:35;2.20;;;0.80;;
6452;SDS011;3259;51.080;13.712;2023-04-03T03:00:24;0.73;;;0.50;;
6452;SDS011;3259;51.080;13.712;2023-04-03T03:03:16;0.60;;;0.60;;
6452;SDS011;3259;51.080;13.712;2023-04-03T03:06:05;0.88;;;0.45;;
6452;SDS011;3259;51.080;13.712;2023-04-03T03:08:55;1.98;;;0.60;;
6452;SDS011;3259;51.080;13.712;2023-04-03T03:11:44;0.45;;;0.45;;
6452;SDS011;3259;51.080;13.712;2023-04-03T03:14:34;0.57;;;0.45;;
6452;SDS011;3259;51.080;13.712;2023-04-03T03:17:23;0.43;;;0.30;;
6452;SDS011;3259;51.080;13.712;2023-04-03T03:20:12;0.50;;;0.40;;
6452;SDS011;3259;51.080;13.712;2023-04-03T03:23:02;1.05;;;0.43;;
6452;SDS011;3259;51.080;13.712;2023-04-03T03:25:54;1.75;;;0.60;;
6452;SDS011;3259;51.080;13.712;2023-04-03T03:28:43;1.10;;;0.50;;
6452;SDS011;3259;51.080;13.712;2023-04-03T03:31:33;0.85;;;0.32;;
6452;SDS011;3259;51.080;13.712;2023-04-03T03:34:22;0.90;;;0.70;;
6452;SDS011;3259;51.080;13.712;2023-04-03T03:37:12;1.45;;;0.43;;
6452;SDS011;3259;51.080;13.712;2023-04-03T03:40:01;0.38;;;0.38;;
6452;SDS011;3259;51.080;13.712;2023-04-03T03:42:49;0.30;;;0.20;;
6452;SDS011;3259;51.080;13.712;2023-04-03T03:45:38;0.40;;;0.40;;
6452;SDS011;3259;51.080;13.712;2023-04-03T03:48:28;0.93;;;0.38;;
6452;SDS011;3259;51.080;13.712;2023-04-03T03:51:17;1.00;;;0.40;;
6452;SDS011;3259;51.080;13.712;2023-04-03T03:54:06;0.50;;;0.38;;
6452;SDS011;3259;51.080;13.712;2023-04-03T03:56:55;0.45;;;0.45;;
6452;SDS011;3259;51.080;13.712;2023-04-03T03:59:43;1.50;;;0.32;;
6452;SDS011;3259;51.080;13.712;2023-04-03T04:02:33;1.15;;;0.40;;
6452;SDS011;3259;51.080;13.712;2023-04-03T04:05:24;2.33;;;0.40;;
6452;SDS011;3259;51.080;13.712;2023-04-03T04:08:12;4.22;;;0.50;;
6452;SDS011;3259;51.080;13.712;2023-04-03T04:11:01;0.65;;;0.38;;
6452;SDS011;3259;51.080;13.712;2023-04-03T04:13:50;1.00;;;0.47;;
6452;SDS011;3259;51.080;13.712;2023-04-03T04:16:38;0.20;;;0.20;;
6452;SDS011;3259;51.080;13.712;2023-04-03T04:19:28;3.28;;;0.40;;
6452;SDS011;3259;51.080;13.712;2023-04-03T04:22:18;3.20;;;0.50;;
6452;SDS011;3259;51.080;13.712;2023-04-03T04:25:07;2.90;;;0.50;;
6452;SDS011;3259;51.080;13.712;2023-04-03T04:27:56;7.30;;;1.48;;
6452;SDS011;3259;51.080;13.712;2023-04-03T04:30:45;5.57;;;1.40;;
6452;SDS011;3259;51.080;13.712;2023-04-03T04:33:33;6.25;;;1.80;;
6452;SDS011;3259;51.080;13.712;2023-04-03T04:36:22;2.58;;;1.15;;
6452;SDS011;3259;51.080;13.712;2023-04-03T04:39:12;3.13;;;1.17;;
6452;SDS011;3259;51.080;13.712;2023-04-03T04:42:01;2.20;;;1.02;;
6452;SDS011;3259;51.080;13.712;2023-04-03T04:44:50;7.30;;;1.17;;
6452;SDS011;3259;51.080;13.712;2023-04-03T04:47:38;4.65;;;1.02;;
6452;SDS011;3259;51.080;13.712;2023-04-03T04:50:27;4.03;;;0.68;;
6452;SDS011;3259;51.080;13.712;2023-04-03T04:53:16;2.88;;;0.88;;
6452;SDS011;3259;51.080;13.712;2023-04-03T04:56:06;1.98;;;0.80;;
6452;SDS011;3259;51.080;13.712;2023-04-03T04:58:55;1.90;;;1.10;;
6452;SDS011;3259;51.080;13.712;2023-04-03T05:01:43;4.78;;;1.33;;
6452;SDS011;3259;51.080;13.712;2023-04-03T05:04:34;6.20;;;0.98;;
6452;SDS011;3259;51.080;13.712;2023-04-03T05:07:22;2.50;;;1.35;;
6452;SDS011;3259;51.080;13.712;2023-04-03T05:10:12;1.33;;;0.95;;
6452;SDS011;3259;51.080;13.712;2023-04-03T05:13:04;1.38;;;0.98;;
6452;SDS011;3259;51.080;13.712;2023-04-03T05:15:53;2.85;;;0.80;;
6452;SDS011;3259;51.080;13.712;2023-04-03T05:18:42;3.05;;;0.98;;
6452;SDS011;3259;51.080;13.712;2023-04-03T05:21:31;1.80;;;1.10;;
6452;SDS011;3259;51.080;13.712;2023-04-03T05:24:19;0.82;;;0.68;;
6452;SDS011;3259;51.080;13.712;2023-04-03T05:27:08;2.88;;;1.10;;
6452;SDS011;3259;51.080;13.712;2023-04-03T05:29:58;0.93;;;0.57;;
6452;SDS011;3259;51.080;13.712;2023-04-03T05:32:48;3.42;;;1.02;;
6452;SDS011;3259;51.080;13.712;2023-04-03T05:35:36;1.80;;;0.68;;
6452;SDS011;3259;51.080;13.712;2023-04-03T05:38:31;5.07;;;0.95;;
6452;SDS011;3259;51.080;13.712;2023-04-03T05:41:20;3.10;;;1.17;;
6452;SDS011;3259;51.080;13.712;2023-04-03T05:44:08;2.38;;;1.10;;
6452;SDS011;3259;51.080;13.712;2023-04-03T05:47:01;2.38;;;0.95;;
6452;SDS011;3259;51.080;13.712;2023-04-03T05:49:50;4.85;;;0.93;;
6452;SDS011;3259;51.080;13.712;2023-04-03T05:52:40;1.02;;;0.50;;
6452;SDS011;3259;51.080;13.712;2023-04-03T05:55:31;1.75;;;0.70;;
6452;SDS011;3259;51.080;13.712;2023-04-03T05:58:20;1.40;;;0.80;;
6452;SDS011;3259;51.080;13.712;2023-04-03T06:01:09;0.98;;;0.80;;
6452;SDS011;3259;51.080;13.712;2023-04-03T06:03:59;1.85;;;0.80;;
6452;SDS011;3259;51.080;13.712;2023-04-03T06:06:50;1.85;;;0.95;;
6452;SDS011;3259;51.080;13.712;2023-04-03T06:09:40;1.52;;;0.85;;
6452;SDS011;3259;51.080;13.712;2023-04-03T06:12:29;1.08;;;0.75;;
6452;SDS011;3259;51.080;13.712;2023-04-03T06:15:18;1.85;;;0.60;;
6452;SDS011;3259;51.080;13.712;2023-04-03T06:18:07;2.20;;;0.80;;
6452;SDS011;3259;51.080;13.712;2023-04-03T06:20:57;2.70;;;0.93;;
6452;SDS011;3259;51.080;13.712;2023-04-03T06:23:47;4.40;;;1.02;;
6452;SDS011;3259;51.080;13.712;2023-04-03T06:26:36;1.80;;;0.85;;
6452;SDS011;3259;51.080;13.712;2023-04-03T06:29:24;3.58;;;0.90;;
6452;SDS011;3259;51.080;13.712;2023-04-03T06:32:13;10.18;;;1.33;;
6452;SDS011;3259;51.080;13.712;2023-04-03T06:35:02;3.67;;;0.80;;
6452;SDS011;3259;51.080;13.712;2023-04-03T06:37:52;3.03;;;1.05;;
6452;SDS011;3259;51.080;13.712;2023-04-03T06:40:41;1.83;;;0.77;;
6452;SDS011;3259;51.080;13.712;2023-04-03T06:43:30;2.13;;;0.77;;
6452;SDS011;3259;51.080;13.712;2023-04-03T06:46:21;1.63;;;0.82;;
6452;SDS011;3259;51.080;13.712;2023-04-03T06:49:10;3.53;;;0.85;;
6452;SDS011;3259;51.080;13.712;2023-04-03T06:51:59;2.58;;;0.90;;
6452;SDS011;3259;51.080;13.712;2023-04-03T06:54:50;3.17;;;0.80;;
6452;SDS011;3259;51.080;13.712;2023-04-03T06:57:43;3.60;;;0.75;;
6452;SDS011;3259;51.080;13.712;2023-04-03T07:00:32;1.92;;;0.73;;
6452;SDS011;3259;51.080;13.712;2023-04-03T07:03:21;2.03;;;0.70;;
6452;SDS011;3259;51.080;13.712;2023-04-03T07:06:19;3.83;;;0.82;;
6452;SDS011;3259;51.080;13.712;2023-04-03T07:09:08;2.75;;;0.63;;
6452;SDS011;3259;51.080;13.712;2023-04-03T07:11:58;4.10;;;0.75;;
6452;SDS011;3259;51.080;13.712;2023-04-03T07:14:47;1.80;;;0.60;;
6452;SDS011;3259;51.080;13.712;2023-04-03T07:17:36;1.05;;;0.95;;
6452;SDS011;3259;51.080;13.712;2023-04-03T07:20:25;0.50;;;0.50;;
6452;SDS011;3259;51.080;13.712;2023-04-03T07:23:14;4.63;;;0.82;;
6452;SDS011;3259;51.080;13.712;2023-04-03T07:26:02;2.15;;;0.50;;
6452;SDS011;3259;51.080;13.712;2023-04-03T07:28:52;0.70;;;0.50;;
6452;SDS011;3259;51.080;13.712;2023-04-03T07:31:41;3.08;;;0.90;;
6452;SDS011;3259;51.080;13.712;2023-04-03T07:34:31;0.75;;;0.65;;
6452;SDS011;3259;51.080;13.712;2023-04-03T07:37:20;2.05;;;0.75;;
6452;SDS011;3259;51.080;13.712;2023-04-03T07:40:09;2.83;;;1.05;;
6452;SDS011;3259;51.080;13.712;2023-04-03T07:42:58;1.27;;;0.52;;
6452;SDS011;3259;51.080;13.712;2023-04-03T07:45:48;0.88;;;0.45;;
6452;SDS011;3259;51.080;13.712;2023-04-03T07:48:38;1.35;;;0.60;;
6452;SDS011;3259;51.080;13.712;2023-04-03T07:51:26;2.92;;;0.98;;
6452;SDS011;3259;51.080;13.712;2023-04-03T07:54:16;0.75;;;0.57;;
6452;SDS011;3259;51.080;13.712;2023-04-03T07:57:05;2.03;;;0.57;;
6452;SDS011;3259;51.080;13.712;2023-04-03T07:59:53;1.58;;;0.60;;
6452;SDS011;3259;51.080;13.712;2023-04-03T08:02:43;1.52;;;0.63;;
6452;SDS011;3259;51.080;13.712;2023-04-03T08:05:37;1.13;;;0.40;;
6452;SDS011;3259;51.080;13.712;2023-04-03T08:08:27;3.30;;;0.95;;
6452;SDS011;3259;51.080;13.712;2023-04-03T08:11:16;6.82;;;0.80;;
6452;SDS011;3259;51.080;13.712;2023-04-03T08:14:05;2.00;;;0.50;;
6452;SDS011;3259;51.080;13.712;2023-04-03T08:16:54;1.13;;;0.60;;
6452;SDS011;3259;51.080;13.712;2023-04-03T08:19:45;1.48;;;0.57;;
6452;SDS011;3259;51.080;13.712;2023-04-03T08:22:34;1.40;;;0.63;;
6452;SDS011;3259;51.080;13.712;2023-04-03T08:25:22;1.98;;;0.68;;
6452;SDS011;3259;51.080;13.712;2023-04-03T08:28:12;0.82;;;0.50;;
6452;SDS011;3259;51.080;13.712;2023-04-03T08:31:04;0.65;;;0.60;;
6452;SDS011;3259;51.080;13.712;2023-04-03T08:33:54;1.63;;;1.05;;
6452;SDS011;3259;51.080;13.712;2023-04-03T08:36:46;5.43;;;0.47;;
6452;SDS011;3259;51.080;13.712;2023-04-03T08:39:35;1.85;;;0.63;;
6452;SDS011;3259;51.080;13.712;2023-04-03T08:42:31;1.83;;;0.30;;
6452;SDS011;3259;51.080;13.712;2023-04-03T08:45:31;0.85;;;0.35;;
6452;SDS011;3259;51.080;13.712;2023-04-03T08:48:27;1.85;;;0.70;;
6452;SDS011;3259;51.080;13.712;2023-04-03T08:51:17;0.82;;;0.47;;
6452;SDS011;3259;51.080;13.712;2023-04-03T08:54:18;1.55;;;0.52;;
6452;SDS011;3259;51.080;13.712;2023-04-03T08:57:15;0.75;;;0.52;;
6452;SDS011;3259;51.080;13.712;2023-04-03T09:00:05;2.38;;;0.40;;
6452;SDS011;3259;51.080;13.712;2023-04-03T09:02:55;1.80;;;0.68;;
6452;SDS011;3259;51.080;13.712;2023-04-03T09:05:46;1.15;;;0.85;;
6452;SDS011;3259;51.080;13.712;2023-04-03T09:08:37;0.43;;;0.43;;
6452;SDS011;3259;51.080;13.712;2023-04-03T09:11:34;2.45;;;0.60;;
6452;SDS011;3259;51.080;13.712;2023-04-03T09:14:29;3.00;;;0.55;;
6452;SDS011;3259;51.080;13.712;2023-04-03T09:17:24;0.70;;;0.30;;
6452;SDS011;3259;51.080;13.712;2023-04-03T09:20:21;1.10;;;0.63;;
6452;SDS011;3259;51.080;13.712;2023-04-03T09:23:15;0.65;;;0.47;;
6452;SDS011;3259;51.080;13.712;2023-04-03T09:26:07;0.57;;;0.52;;
6452;SDS011;3259;51.080;13.712;2023-04-03T09:29:00;0.75;;;0.40;;
6452;SDS011;3259;51.080;13.712;2023-04-03T09:31:52;4.80;;;0.80;;
6452;SDS011;3259;51.080;13.712;2023-04-03T09:34:44;1.70;;;0.80;;
6452;SDS011;3259;51.080;13.712;2023-04-03T09:37:34;5.00;;;0.65;;
6452;SDS011;3259;51.080;13.712;2023-04-03T09:40:30;2.03;;;0.43;;
6452;SDS011;3259;51.080;13.712;2023-04-03T09:43:26;2.67;;;0.50;;
6452;SDS011;3259;51.080;13.712;2023-04-03T09:46:23;3.35;;;0.57;;
6452;SDS011;3259;51.080;13.712;2023-04-03T09:49:14;1.35;;;0.40;;
6452;SDS011;3259;51.080;13.712;2023-04-03T09:52:15;2.45;;;0.50;;
6452;SDS011;3259;51.080;13.712;2023-04-03T09:55:07;1.35;;;0.22;;
6452;SDS011;3259;51.080;13.712;2023-04-03T09:57:57;1.40;;;0.50;;
6452;SDS011;3259;51.080;13.712;2023-04-03T10:00:53;0.98;;;0.32;;
6452;SDS011;3259;51.080;13.712;2023-04-03T10:03:44;2.95;;;0.30;;
6452;SDS011;3259;51.080;13.712;2023-04-03T10:06:34;0.40;;;0.30;;
6452;SDS011;3259;51.080;13.712;2023-04-03T10:09:24;2.22;;;0.63;;
6452;SDS011;3259;51.080;13.712;2023-04-03T10:12:14;0.50;;;0.47;;
6452;SDS011;3259;51.080;13.712;2023-04-03T10:15:10;1.33;;;0.32;;
6452;SDS011;3259;51.080;13.712;2023-04-03T10:18:00;1.45;;;0.28;;
6452;SDS011;3259;51.080;13.712;2023-04-03T10:21:10;1.60;;;0.50;;
6452;SDS011;3259;51.080;13.712;2023-04-03T10:24:13;0.90;;;0.38;;
6452;SDS011;3259;51.080;13.712;2023-04-03T10:27:06;0.40;;;0.30;;
6452;SDS011;3259;51.080;13.712;2023-04-03T10:29:59;1.20;;;0.20;;
6452;SDS011;3259;51.080;13.712;2023-04-03T10:32:55;0.93;;;0.45;;
6452;SDS011;3259;51.080;13.712;2023-04-03T10:35:50;1.40;;;0.40;;
6452;SDS011;3259;51.080;13.712;2023-04-03T10:38:51;3.03;;;0.30;;
6452;SDS011;3259;51.080;13.712;2023-04-03T10:41:47;2.95;;;0.30;;
6452;SDS011;3259;51.080;13.712;2023-04-03T10:45:01;1.60;;;0.50;;
6452;SDS011;3259;51.080;13.712;2023-04-03T10:47:59;1.33;;;0.28;;
6452;SDS011;3259;51.080;13.712;2023-04-03T10:50:52;2.33;;;0.35;;
6452;SDS011;3259;51.080;13.712;2023-04-03T10:53:49;0.77;;;0.30;;
6452;SDS011;3259;51.080;13.712;2023-04-03T10:56:44;1.27;;;0.50;;
6452;SDS011;3259;51.080;13.712;2023-04-03T10:59:51;0.47;;;0.20;;
6452;SDS011;3259;51.080;13.712;2023-04-03T11:02:45;0.30;;;0.30;;
6452;SDS011;3259;51.080;13.712;2023-04-03T11:05:39;3.10;;;1.10;;
6452;SDS011;3259;51.080;13.712;2023-04-03T11:08:32;16.83;;;5.78;;
6452;SDS011;3259;51.080;13.712;2023-04-03T11:11:26;35.83;;;12.45;;
6452;SDS011;3259;51.080;13.712;2023-04-03T11:14:22;43.10;;;17.60;;
6452;SDS011;3259;51.080;13.712;2023-04-03T11:17:18;51.65;;;18.38;;
6452;SDS011;3259;51.080;13.712;2023-04-03T11:20:14;50.13;;;18.40;;
6452;SDS011;3259;51.080;13.712;2023-04-03T11:23:06;48.28;;;18.80;;
6452;SDS011;3259;51.080;13.712;2023-04-03T11:26:06;46.03;;;18.63;;
6452;SDS011;3259;51.080;13.712;2023-04-03T11:29:00;44.40;;;18.67;;
6452;SDS011;3259;51.080;13.712;2023-04-03T11:32:02;55.58;;;17.05;;
6452;SDS011;3259;51.080;13.712;2023-04-03T11:34:57;44.22;;;16.83;;
6452;SDS011;3259;51.080;13.712;2023-04-03T11:37:48;44.25;;;15.55;;
6452;SDS011;3259;51.080;13.712;2023-04-03T11:40:38;36.83;;;13.88;;
6452;SDS011;3259;51.080;13.712;2023-04-03T11:43:28;34.03;;;14.02;;
6452;SDS011;3259;51.080;13.712;2023-04-03T11:46:19;31.58;;;12.45;;
6452;SDS011;3259;51.080;13.712;2023-04-03T11:49:08;28.05;;;11.63;;
6452;SDS011;3259;51.080;13.712;2023-04-03T11:55:57;26.98;;;11.52;;
6452;SDS011;3259;51.080;13.712;2023-04-03T12:02:16;23.77;;;9.63;;
6452;SDS011;3259;51.080;13.712;2023-04-03T12:05:29;19.15;;;8.60;;
6452;SDS011;3259;51.080;13.712;2023-04-03T12:08:25;18.33;;;8.00;;
6452;SDS011;3259;51.080;13.712;2023-04-03T12:11:14;21.02;;;8.45;;
6452;SDS011;3259;51.080;13.712;2023-04-03T12:14:04;18.73;;;7.47;;
6452;SDS011;3259;51.080;13.712;2023-04-03T12:17:00;17.27;;;7.20;;
6452;SDS011;3259;51.080;13.712;2023-04-03T12:19:51;15.65;;;7.22;;
6452;SDS011;3259;51.080;13.712;2023-04-03T12:22:39;14.95;;;6.97;;
6452;SDS011;3259;51.080;13.712;2023-04-03T12:26:20;9.73;;;5.65;;
6452;SDS011;3259;51.080;13.712;2023-04-03T12:29:20;14.77;;;6.75;;
6452;SDS011;3259;51.080;13.712;2023-04-03T12:32:15;13.77;;;5.07;;
6452;SDS011;3259;51.080;13.712;2023-04-03T12:35:16;10.77;;;5.28;;
6452;SDS011;3259;51.080;13.712;2023-04-03T12:38:20;9.48;;;4.45;;
6452;SDS011;3259;51.080;13.712;2023-04-03T12:41:22;8.10;;;4.47;;
6452;SDS011;3259;51.080;13.712;2023-04-03T12:44:30;10.32;;;4.38;;
6452;SDS011;3259;51.080;13.712;2023-04-03T12:47:28;8.98;;;4.28;;
6452;SDS011;3259;51.080;13.712;2023-04-03T12:50:22;10.50;;;4.28;;
6452;SDS011;3259;51.080;13.712;2023-04-03T12:53:12;8.80;;;4.13;;
6452;SDS011;3259;51.080;13.712;2023-04-03T12:56:21;7.50;;;4.32;;
6452;SDS011;3259;51.080;13.712;2023-04-03T12:59:15;4.93;;;3.53;;
6452;SDS011;3259;51.080;13.712;2023-04-03T13:02:09;8.13;;;3.75;;
6452;SDS011;3259;51.080;13.712;2023-04-03T13:05:06;6.22;;;3.35;;
6452;SDS011;3259;51.080;13.712;2023-04-03T13:07:59;5.07;;;2.28;;
6452;SDS011;3259;51.080;13.712;2023-04-03T13:10:53;5.45;;;2.47;;
6452;SDS011;3259;51.080;13.712;2023-04-03T13:13:53;5.40;;;2.72;;
6452;SDS011;3259;51.080;13.712;2023-04-03T13:16:52;6.95;;;2.88;;
6452;SDS011;3259;51.080;13.712;2023-04-03T13:19:42;6.70;;;2.72;;
6452;SDS011;3259;51.080;13.712;2023-04-03T13:22:33;11.75;;;2.42;;
6452;SDS011;3259;51.080;13.712;2023-04-03T13:25:28;8.63;;;2.40;;
6452;SDS011;3259;51.080;13.712;2023-04-03T13:28:20;5.30;;;2.38;;
6452;SDS011;3259;51.080;13.712;2023-04-03T13:31:17;4.20;;;1.92;;
6452;SDS011;3259;51.080;13.712;2023-04-03T13:34:10;4.88;;;1.88;;
6452;SDS011;3259;51.080;13.712;2023-04-03T13:37:01;4.20;;;1.50;;
6452;SDS011;3259;51.080;13.712;2023-04-03T13:39:57;7.13;;;1.80;;
6452;SDS011;3259;51.080;13.712;2023-04-03T13:42:59;4.25;;;2.05;;
6452;SDS011;3259;51.080;13.712;2023-04-03T13:45:53;6.28;;;2.10;;
6452;SDS011;3259;51.080;13.712;2023-04-03T13:48:45;2.92;;;1.48;;
6452;SDS011;3259;51.080;13.712;2023-04-03T13:51:37;2.97;;;1.63;;
6452;SDS011;3259;51.080;13.712;2023-04-03T13:54:29;5.55;;;1.40;;
6452;SDS011;3259;51.080;13.712;2023-04-03T13:57:20;3.00;;;1.55;;
6452;SDS011;3259;51.080;13.712;2023-04-03T14:00:28;1.65;;;1.13;;
6452;SDS011;3259;51.080;13.712;2023-04-03T14:03:25;6.55;;;1.98;;
6452;SDS011;3259;51.080;13.712;2023-04-03T14:06:22;4.30;;;1.67;;
6452;SDS011;3259;51.080;13.712;2023-04-03T14:09:11;4.70;;;1.52;;
6452;SDS011;3259;51.080;13.712;2023-04-03T14:12:02;2.22;;;1.20;;
6452;SDS011;3259;51.080;13.712;2023-04-03T14:15:01;4.10;;;1.70;;
6452;SDS011;3259;51.080;13.712;2023-04-03T14:17:56;2.88;;;1.10;;
6452;SDS011;3259;51.080;13.712;2023-04-03T14:20:49;4.03;;;1.33;;
6452;SDS011;3259;51.080;13.712;2023-04-03T14:23:38;4.57;;;1.88;;
6452;SDS011;3259;51.080;13.712;2023-04-03T14:26:28;1.63;;;1.05;;
6452;SDS011;3259;51.080;13.712;2023-04-03T14:29:17;3.72;;;1.50;;
6452;SDS011;3259;51.080;13.712;2023-04-03T14:32:07;3.30;;;1.17;;
6452;SDS011;3259;51.080;13.712;2023-04-03T14:35:02;3.88;;;1.17;;
6452;SDS011;3259;51.080;13.712;2023-04-03T14:37:51;4.53;;;1.45;;
6452;SDS011;3259;51.080;13.712;2023-04-03T14:40:41;4.18;;;1.50;;
6452;SDS011;3259;51.080;13.712;2023-04-03T14:43:30;2.05;;;1.33;;
6452;SDS011;3259;51.080;13.712;2023-04-03T14:46:19;2.38;;;1.20;;
6452;SDS011;3259;51.080;13.712;2023-04-03T14:49:19;6.03;;;1.30;;
6452;SDS011;3259;51.080;13.712;2023-04-03T14:52:12;3.30;;;1.00;;
6452;SDS011;3259;51.080;13.712;2023-04-03T14:55:06;3.15;;;1.00;;
6452;SDS011;3259;51.080;13.712;2023-04-03T14:57:55;1.10;;;0.80;;
6452;SDS011;3259;51.080;13.712;2023-04-03T15:00:44;2.92;;;1.00;;
6452;SDS011;3259;51.080;13.712;2023-04-03T15:03:33;6.60;;;1.63;;
6452;SDS011;3259;51.080;13.712;2023-04-03T15:06:22;2.78;;;1.30;;
6452;SDS011;3259;51.080;13.712;2023-04-03T15:09:16;4.50;;;1.30;;
6452;SDS011;3259;51.080;13.712;2023-04-03T15:12:08;6.82;;;1.20;;
6452;SDS011;3259;51.080;13.712;2023-04-03T15:14:57;6.65;;;1.13;;
6452;SDS011;3259;51.080;13.712;2023-04-03T15:17:50;10.70;;;1.60;;
6452;SDS011;3259;51.080;13.712;2023-04-03T15:20:41;10.27;;;1.85;;
6452;SDS011;3259;51.080;13.712;2023-04-03T15:23:30;4.93;;;0.70;;
6452;SDS011;3259;51.080;13.712;2023-04-03T15:26:20;6.28;;;1.42;;
6452;SDS011;3259;51.080;13.712;2023-04-03T15:29:09;5.13;;;1.15;;
6452;SDS011;3259;51.080;13.712;2023-04-03T15:31:58;19.00;;;2.00;;
6452;SDS011;3259;51.080;13.712;2023-04-03T15:34:46;11.50;;;1.00;;
6452;SDS011;3259;51.080;13.712;2023-04-03T15:37:35;7.25;;;0.95;;
6452;SDS011;3259;51.080;13.712;2023-04-03T15:40:24;2.47;;;0.88;;
6452;SDS011;3259;51.080;13.712;2023-04-03T15:43:15;2.60;;;0.82;;
6452;SDS011;3259;51.080;13.712;2023-04-03T15:46:04;8.32;;;1.00;;
6452;SDS011;3259;51.080;13.712;2023-04-03T15:48:53;4.20;;;1.27;;
6452;SDS011;3259;51.080;13.712;2023-04-03T15:51:41;3.67;;;1.20;;
6452;SDS011;3259;51.080;13.712;2023-04-03T15:54:30;3.38;;;1.25;;
6452;SDS011;3259;51.080;13.712;2023-04-03T15:57:22;6.55;;;1.20;;
6452;SDS011;3259;51.080;13.712;2023-04-03T16:00:18;3.45;;;1.00;;
6452;SDS011;3259;51.080;13.712;2023-04-03T16:03:08;4.40;;;0.88;;
6452;SDS011;3259;51.080;13.712;2023-04-03T16:05:59;2.80;;;0.77;;
6452;SDS011;3259;51.080;13.712;2023-04-03T16:08:50;17.13;;;3.53;;
6452;SDS011;3259;51.080;13.712;2023-04-03T16:11:43;157.18;;;36.97;;
6452;SDS011;3259;51.080;13.712;2023-04-03T16:14:32;230.73;;;53.80;;
6452;SDS011;3259;51.080;13.712;2023-04-03T16:17:22;222.30;;;48.03;;
6452;SDS011;3259;51.080;13.712;2023-04-03T16:20:11;194.25;;;45.75;;
6452;SDS011;3259;51.080;13.712;2023-04-03T16:23:01;207.40;;;47.05;;
6452;SDS011;3259;51.080;13.712;2023-04-03T16:25:52;186.13;;;48.20;;
6452;SDS011;3259;51.080;13.712;2023-04-03T16:28:41;170.85;;;39.53;;
6452;SDS011;3259;51.080;13.712;2023-04-03T16:31:29;152.93;;;37.75;;
6452;SDS011;3259;51.080;13.712;2023-04-03T16:34:22;140.18;;;38.20;;
6452;SDS011;3259;51.080;13.712;2023-04-03T16:37:12;146.85;;;40.45;;
6452;SDS011;3259;51.080;13.712;2023-04-03T16:40:04;138.02;;;38.70;;
6452;SDS011;3259;51.080;13.712;2023-04-03T16:42:54;151.35;;;41.30;;
6452;SDS011;3259;51.080;13.712;2023-04-03T16:45:43;157.05;;;39.42;;
6452;SDS011;3259;51.080;13.712;2023-04-03T16:48:32;154.93;;;41.45;;
6452;SDS011;3259;51.080;13.712;2023-04-03T16:51:22;135.43;;;39.95;;
6452;SDS011;3259;51.080;13.712;2023-04-03T16:54:14;135.77;;;40.13;;
6452;SDS011;3259;51.080;13.712;2023-04-03T16:57:03;129.27;;;37.95;;
6452;SDS011;3259;51.080;13.712;2023-04-03T16:59:51;142.70;;;38.13;;
6452;SDS011;3259;51.080;13.712;2023-04-03T17:02:41;105.15;;;29.88;;
6452;SDS011;3259;51.080;13.712;2023-04-03T17:05:29;119.13;;;34.25;;
6452;SDS011;3259;51.080;13.712;2023-04-03T17:08:20;120.75;;;32.50;;
6452;SDS011;3259;51.080;13.712;2023-04-03T17:11:10;112.22;;;32.13;;
6452;SDS011;3259;51.080;13.712;2023-04-03T17:13:59;101.22;;;31.92;;
6452;SDS011;3259;51.080;13.712;2023-04-03T17:16:48;90.40;;;29.35;;
6452;SDS011;3259;51.080;13.712;2023-04-03T17:19:38;111.22;;;33.33;;
6452;SDS011;3259;51.080;13.712;2023-04-03T17:22:27;94.30;;;31.73;;
6452;SDS011;3259;51.080;13.712;2023-04-03T17:25:18;92.70;;;28.92;;
6452;SDS011;3259;51.080;13.712;2023-04-03T17:28:06;93.93;;;29.63;;
6452;SDS011;3259;51.080;13.712;2023-04-03T17:30:55;84.53;;;28.02;;